sensor_id;sensor_type;location;lat;lon;timestamp;temperature;humidity
29571;DHT22;16814;52.118;11.436;2022-11-03T00:01:49;6.00;99.90
29571;DHT22;16814;52.118;11.436;2022-11-03T00:04:22;6.10;99.90
29571;DHT22;16814;52.118;11.436;2022-11-03T00:06:50;6.20;99.90
29571;DHT22;16814;52.118;11.436;2022-11-03T00:09:18;6.40;99.90
29571;DHT22;16814;52.118;11.436;2022-11-03T00:11:49;6.40;99.90
29571;DHT22;16814;52.118;11.436;2022-11-03T00:14:17;6.50;99.90
29571;DHT22;16814;52.118;11.436;2022-11-03T00:16:44;6.50;99.90
29571;DHT22;16814;52.118;11.436;2022-11-03T00:19:10;6.50;99.90
29571;DHT22;16814;52.118;11.436;2022-11-03T00:21:39;6.50;99.90
29571;DHT22;16814;52.118;11.436;2022-11-03T00:24:06;6.50;99.90
29571;DHT22;16814;52.118;11.436;2022-11-03T00:26:34;6.50;99.90
29571;DHT22;16814;52.118;11.436;2022-11-03T00:29:10;6.40;99.90
29571;DHT22;16814;52.118;11.436;2022-11-03T00:31:37;6.60;99.90
29571;DHT22;16814;52.118;11.436;2022-11-03T00:34:04;6.70;99.90
29571;DHT22;16814;52.118;11.436;2022-11-03T00:36:40;6.60;99.90
29571;DHT22;16814;52.118;11.436;2022-11-03T00:39:09;6.60;99.90
29571;DHT22;16814;52.118;11.436;2022-11-03T00:41:35;6.60;99.90
29571;DHT22;16814;52.118;11.436;2022-11-03T00:44:04;6.60;99.90
29571;DHT22;16814;52.118;11.436;2022-11-03T00:46:31;6.50;99.90
29571;DHT22;16814;52.118;11.436;2022-11-03T00:49:02;6.40;99.90
29571;DHT22;16814;52.118;11.436;2022-11-03T00:51:29;6.40;99.90
29571;DHT22;16814;52.118;11.436;2022-11-03T00:53:59;6.40;99.90
29571;DHT22;16814;52.118;11.436;2022-11-03T00:56:32;6.40;99.90
29571;DHT22;16814;52.118;11.436;2022-11-03T00:58:59;6.30;99.90
29571;DHT22;16814;52.118;11.436;2022-11-03T01:01:42;6.30;99.90
29571;DHT22;16814;52.118;11.436;2022-11-03T01:04:09;6.20;99.90
29571;DHT22;16814;52.118;11.436;2022-11-03T01:06:59;6.30;99.90
29571;DHT22;16814;52.118;11.436;2022-11-03T01:09:37;6.20;99.90
29571;DHT22;16814;52.118;11.436;2022-11-03T01:12:09;6.30;99.90
29571;DHT22;16814;52.118;11.436;2022-11-03T01:14:52;6.40;99.90
29571;DHT22;16814;52.118;11.436;2022-11-03T01:17:22;6.50;99.90
29571;DHT22;16814;52.118;11.436;2022-11-03T01:19:50;6.60;99.90
29571;DHT22;16814;52.118;11.436;2022-11-03T01:22:17;6.50;99.90
29571;DHT22;16814;52.118;11.436;2022-11-03T01:24:44;6.40;99.90
29571;DHT22;16814;52.118;11.436;2022-11-03T01:27:14;6.50;99.90
29571;DHT22;16814;52.118;11.436;2022-11-03T01:29:41;6.40;99.90
29571;DHT22;16814;52.118;11.436;2022-11-03T01:32:08;6.40;99.90
29571;DHT22;16814;52.118;11.436;2022-11-03T01:34:35;6.30;99.90
29571;DHT22;16814;52.118;11.436;2022-11-03T01:37:04;6.30;99.90
29571;DHT22;16814;52.118;11.436;2022-11-03T01:39:30;6.40;99.90
29571;DHT22;16814;52.118;11.436;2022-11-03T01:41:57;6.40;99.90
29571;DHT22;16814;52.118;11.436;2022-11-03T01:44:36;6.40;99.90
29571;DHT22;16814;52.118;11.436;2022-11-03T01:47:12;6.30;99.90
29571;DHT22;16814;52.118;11.436;2022-11-03T01:49:51;6.30;99.90
29571;DHT22;16814;52.118;11.436;2022-11-03T01:54:58;6.20;99.90
29571;DHT22;16814;52.118;11.436;2022-11-03T01:57:31;6.20;99.90
29571;DHT22;16814;52.118;11.436;2022-11-03T02:00:03;6.20;99.90
29571;DHT22;16814;52.118;11.436;2022-11-03T02:02:29;6.10;99.90
29571;DHT22;16814;52.118;11.436;2022-11-03T02:04:57;6.20;99.90
29571;DHT22;16814;52.118;11.436;2022-11-03T02:07:49;6.00;99.90
29571;DHT22;16814;52.118;11.436;2022-11-03T02:10:22;6.00;99.90
29571;DHT22;16814;52.118;11.436;2022-11-03T02:12:50;5.90;99.90
29571;DHT22;16814;52.118;11.436;2022-11-03T02:15:18;5.90;99.90
29571;DHT22;16814;52.118;11.436;2022-11-03T02:17:46;5.90;99.90
29571;DHT22;16814;52.118;11.436;2022-11-03T02:20:22;5.90;99.90
29571;DHT22;16814;52.118;11.436;2022-11-03T02:25:45;5.90;99.90
29571;DHT22;16814;52.118;11.436;2022-11-03T02:28:29;5.90;99.90
29571;DHT22;16814;52.118;11.436;2022-11-03T02:34:22;6.10;99.90
29571;DHT22;16814;52.118;11.436;2022-11-03T02:37:01;6.20;99.90
29571;DHT22;16814;52.118;11.436;2022-11-03T02:39:34;6.20;99.90
29571;DHT22;16814;52.118;11.436;2022-11-03T02:42:03;6.30;99.90
29571;DHT22;16814;52.118;11.436;2022-11-03T02:44:34;6.30;99.90
29571;DHT22;16814;52.118;11.436;2022-11-03T02:47:09;6.30;99.90
29571;DHT22;16814;52.118;11.436;2022-11-03T02:49:55;6.20;99.90
29571;DHT22;16814;52.118;11.436;2022-11-03T02:52:45;6.20;99.90
29571;DHT22;16814;52.118;11.436;2022-11-03T02:58:13;6.30;99.90
29571;DHT22;16814;52.118;11.436;2022-11-03T03:04:06;6.10;99.90
29571;DHT22;16814;52.118;11.436;2022-11-03T03:06:41;6.20;99.90
29571;DHT22;16814;52.118;11.436;2022-11-03T03:09:14;6.20;99.90
29571;DHT22;16814;52.118;11.436;2022-11-03T03:11:41;6.20;99.90
29571;DHT22;16814;52.118;11.436;2022-11-03T03:14:14;6.20;99.90
29571;DHT22;16814;52.118;11.436;2022-11-03T03:16:57;6.10;99.90
29571;DHT22;16814;52.118;11.436;2022-11-03T03:22:49;6.00;99.90
29571;DHT22;16814;52.118;11.436;2022-11-03T03:25:33;5.90;99.90
29571;DHT22;16814;52.118;11.436;2022-11-03T03:31:37;5.80;99.90
29571;DHT22;16814;52.118;11.436;2022-11-03T03:34:06;5.70;99.90
29571;DHT22;16814;52.118;11.436;2022-11-03T03:36:35;5.60;99.90
29571;DHT22;16814;52.118;11.436;2022-11-03T03:39:08;5.60;99.90
29571;DHT22;16814;52.118;11.436;2022-11-03T03:41:38;5.60;99.90
29571;DHT22;16814;52.118;11.436;2022-11-03T03:44:10;5.70;99.90
29571;DHT22;16814;52.118;11.436;2022-11-03T03:47:03;5.60;99.90
29571;DHT22;16814;52.118;11.436;2022-11-03T03:49:31;5.70;99.90
29571;DHT22;16814;52.118;11.436;2022-11-03T03:52:05;5.70;99.90
29571;DHT22;16814;52.118;11.436;2022-11-03T03:54:34;5.80;99.90
29571;DHT22;16814;52.118;11.436;2022-11-03T03:57:04;5.60;99.90
29571;DHT22;16814;52.118;11.436;2022-11-03T03:59:31;5.60;99.90
29571;DHT22;16814;52.118;11.436;2022-11-03T04:01:57;5.40;99.90
29571;DHT22;16814;52.118;11.436;2022-11-03T04:04:23;5.30;99.90
29571;DHT22;16814;52.118;11.436;2022-11-03T04:06:49;5.60;99.90
29571;DHT22;16814;52.118;11.436;2022-11-03T04:09:35;5.40;99.90
29571;DHT22;16814;52.118;11.436;2022-11-03T04:12:02;5.40;99.90
29571;DHT22;16814;52.118;11.436;2022-11-03T04:14:47;5.50;99.90
29571;DHT22;16814;52.118;11.436;2022-11-03T04:17:41;5.50;99.90
29571;DHT22;16814;52.118;11.436;2022-11-03T04:20:30;5.50;99.90
29571;DHT22;16814;52.118;11.436;2022-11-03T04:23:19;5.40;99.90
29571;DHT22;16814;52.118;11.436;2022-11-03T04:25:50;5.30;99.90
29571;DHT22;16814;52.118;11.436;2022-11-03T04:28:27;5.30;99.90
29571;DHT22;16814;52.118;11.436;2022-11-03T04:30:56;5.20;99.90
29571;DHT22;16814;52.118;11.436;2022-11-03T04:33:23;5.10;99.90
29571;DHT22;16814;52.118;11.436;2022-11-03T04:35:56;5.10;99.90
29571;DHT22;16814;52.118;11.436;2022-11-03T04:38:24;5.20;99.90
29571;DHT22;16814;52.118;11.436;2022-11-03T04:40:55;5.10;99.90
29571;DHT22;16814;52.118;11.436;2022-11-03T04:43:35;5.20;99.90
29571;DHT22;16814;52.118;11.436;2022-11-03T04:46:07;5.20;99.90
29571;DHT22;16814;52.118;11.436;2022-11-03T04:48:34;5.20;99.90
29571;DHT22;16814;52.118;11.436;2022-11-03T04:51:16;5.20;99.90
29571;DHT22;16814;52.118;11.436;2022-11-03T04:53:48;5.10;99.90
29571;DHT22;16814;52.118;11.436;2022-11-03T04:56:19;5.10;99.90
29571;DHT22;16814;52.118;11.436;2022-11-03T04:58:47;5.10;99.90
29571;DHT22;16814;52.118;11.436;2022-11-03T05:01:15;5.20;99.90
29571;DHT22;16814;52.118;11.436;2022-11-03T05:03:45;5.10;99.90
29571;DHT22;16814;52.118;11.436;2022-11-03T05:06:33;5.10;99.90
29571;DHT22;16814;52.118;11.436;2022-11-03T05:09:06;5.10;99.90
29571;DHT22;16814;52.118;11.436;2022-11-03T05:11:36;5.10;99.90
29571;DHT22;16814;52.118;11.436;2022-11-03T05:14:18;5.00;99.90
29571;DHT22;16814;52.118;11.436;2022-11-03T05:16:45;5.20;99.90
29571;DHT22;16814;52.118;11.436;2022-11-03T05:19:36;5.20;99.90
29571;DHT22;16814;52.118;11.436;2022-11-03T05:22:03;5.10;99.90
29571;DHT22;16814;52.118;11.436;2022-11-03T05:24:34;5.30;99.90
29571;DHT22;16814;52.118;11.436;2022-11-03T05:27:01;5.10;99.90
29571;DHT22;16814;52.118;11.436;2022-11-03T05:29:36;5.10;99.90
29571;DHT22;16814;52.118;11.436;2022-11-03T05:32:09;5.10;99.90
29571;DHT22;16814;52.118;11.436;2022-11-03T05:34:44;5.10;99.90
29571;DHT22;16814;52.118;11.436;2022-11-03T05:37:32;5.10;99.90
29571;DHT22;16814;52.118;11.436;2022-11-03T05:39:59;5.00;99.90
29571;DHT22;16814;52.118;11.436;2022-11-03T05:42:35;5.10;99.90
29571;DHT22;16814;52.118;11.436;2022-11-03T05:45:11;5.20;99.90
29571;DHT22;16814;52.118;11.436;2022-11-03T05:47:41;5.20;99.90
29571;DHT22;16814;52.118;11.436;2022-11-03T05:50:20;5.10;99.90
29571;DHT22;16814;52.118;11.436;2022-11-03T05:52:55;5.00;99.90
29571;DHT22;16814;52.118;11.436;2022-11-03T05:55:30;4.90;99.90
29571;DHT22;16814;52.118;11.436;2022-11-03T05:58:14;4.90;99.90
29571;DHT22;16814;52.118;11.436;2022-11-03T06:00:46;4.90;99.90
29571;DHT22;16814;52.118;11.436;2022-11-03T06:03:20;5.00;99.90
29571;DHT22;16814;52.118;11.436;2022-11-03T06:05:48;4.90;99.90
29571;DHT22;16814;52.118;11.436;2022-11-03T06:08:23;5.00;99.90
29571;DHT22;16814;52.118;11.436;2022-11-03T06:11:05;5.00;99.90
29571;DHT22;16814;52.118;11.436;2022-11-03T06:13:35;4.90;99.90
29571;DHT22;16814;52.118;11.436;2022-11-03T06:18:58;4.90;99.90
29571;DHT22;16814;52.118;11.436;2022-11-03T06:21:25;4.90;99.90
29571;DHT22;16814;52.118;11.436;2022-11-03T06:23:54;4.80;99.90
29571;DHT22;16814;52.118;11.436;2022-11-03T06:26:24;5.00;99.90
29571;DHT22;16814;52.118;11.436;2022-11-03T06:28:52;5.00;99.90
29571;DHT22;16814;52.118;11.436;2022-11-03T06:31:26;4.80;99.90
29571;DHT22;16814;52.118;11.436;2022-11-03T06:33:52;5.00;99.90
29571;DHT22;16814;52.118;11.436;2022-11-03T06:36:24;5.20;99.90
29571;DHT22;16814;52.118;11.436;2022-11-03T06:38:56;5.20;99.90
29571;DHT22;16814;52.118;11.436;2022-11-03T06:41:26;5.30;99.90
29571;DHT22;16814;52.118;11.436;2022-11-03T06:43:56;5.20;99.90
29571;DHT22;16814;52.118;11.436;2022-11-03T06:46:24;5.30;99.90
29571;DHT22;16814;52.118;11.436;2022-11-03T06:48:53;5.20;99.90
29571;DHT22;16814;52.118;11.436;2022-11-03T06:51:24;5.30;99.90
29571;DHT22;16814;52.118;11.436;2022-11-03T06:53:54;5.30;99.90
29571;DHT22;16814;52.118;11.436;2022-11-03T06:56:23;5.30;99.90
29571;DHT22;16814;52.118;11.436;2022-11-03T06:58:55;5.60;99.90
29571;DHT22;16814;52.118;11.436;2022-11-03T07:01:29;5.50;99.90
29571;DHT22;16814;52.118;11.436;2022-11-03T07:04:13;5.40;99.90
29571;DHT22;16814;52.118;11.436;2022-11-03T07:06:42;5.50;99.90
29571;DHT22;16814;52.118;11.436;2022-11-03T07:09:14;5.40;99.90
29571;DHT22;16814;52.118;11.436;2022-11-03T07:11:47;5.50;99.90
29571;DHT22;16814;52.118;11.436;2022-11-03T07:14:20;5.60;99.90
29571;DHT22;16814;52.118;11.436;2022-11-03T07:16:56;5.60;99.90
29571;DHT22;16814;52.118;11.436;2022-11-03T07:19:28;5.70;99.90
29571;DHT22;16814;52.118;11.436;2022-11-03T07:22:18;5.70;99.90
29571;DHT22;16814;52.118;11.436;2022-11-03T07:24:47;5.90;99.90
29571;DHT22;16814;52.118;11.436;2022-11-03T07:27:23;5.90;99.90
29571;DHT22;16814;52.118;11.436;2022-11-03T07:29:50;5.90;99.90
29571;DHT22;16814;52.118;11.436;2022-11-03T07:32:32;6.00;99.90
29571;DHT22;16814;52.118;11.436;2022-11-03T07:37:43;6.20;99.90
29571;DHT22;16814;52.118;11.436;2022-11-03T07:40:25;6.20;99.90
29571;DHT22;16814;52.118;11.436;2022-11-03T07:46:15;6.20;99.90
29571;DHT22;16814;52.118;11.436;2022-11-03T07:48:54;6.30;99.90
29571;DHT22;16814;52.118;11.436;2022-11-03T07:51:37;6.30;99.90
29571;DHT22;16814;52.118;11.436;2022-11-03T07:54:31;6.40;99.90
29571;DHT22;16814;52.118;11.436;2022-11-03T07:57:18;6.40;99.90
29571;DHT22;16814;52.118;11.436;2022-11-03T08:00:06;6.40;99.90
29571;DHT22;16814;52.118;11.436;2022-11-03T08:02:51;6.40;99.90
29571;DHT22;16814;52.118;11.436;2022-11-03T08:05:19;6.50;99.90
29571;DHT22;16814;52.118;11.436;2022-11-03T08:07:46;6.50;99.90
29571;DHT22;16814;52.118;11.436;2022-11-03T08:10:15;6.70;99.90
29571;DHT22;16814;52.118;11.436;2022-11-03T08:12:43;6.80;99.90
29571;DHT22;16814;52.118;11.436;2022-11-03T08:15:10;6.90;99.90
29571;DHT22;16814;52.118;11.436;2022-11-03T08:17:35;7.00;99.90
29571;DHT22;16814;52.118;11.436;2022-11-03T08:20:04;7.20;99.90
29571;DHT22;16814;52.118;11.436;2022-11-03T08:22:30;7.30;99.90
29571;DHT22;16814;52.118;11.436;2022-11-03T08:24:56;7.40;99.90
29571;DHT22;16814;52.118;11.436;2022-11-03T08:27:25;7.60;99.90
29571;DHT22;16814;52.118;11.436;2022-11-03T08:29:55;7.70;99.90
29571;DHT22;16814;52.118;11.436;2022-11-03T08:32:23;7.80;99.90
29571;DHT22;16814;52.118;11.436;2022-11-03T08:34:48;7.90;99.90
29571;DHT22;16814;52.118;11.436;2022-11-03T08:37:15;8.00;99.90
29571;DHT22;16814;52.118;11.436;2022-11-03T08:39:43;8.10;99.90
29571;DHT22;16814;52.118;11.436;2022-11-03T08:42:08;8.20;99.90
29571;DHT22;16814;52.118;11.436;2022-11-03T08:44:34;8.20;99.90
29571;DHT22;16814;52.118;11.436;2022-11-03T08:47:02;8.30;99.90
29571;DHT22;16814;52.118;11.436;2022-11-03T08:49:29;8.30;99.90
29571;DHT22;16814;52.118;11.436;2022-11-03T08:51:58;8.40;99.90
29571;DHT22;16814;52.118;11.436;2022-11-03T08:54:25;8.50;99.90
29571;DHT22;16814;52.118;11.436;2022-11-03T08:56:53;8.50;99.90
29571;DHT22;16814;52.118;11.436;2022-11-03T08:59:20;8.40;99.90
29571;DHT22;16814;52.118;11.436;2022-11-03T09:01:45;8.40;99.90
29571;DHT22;16814;52.118;11.436;2022-11-03T09:04:11;8.50;99.90
29571;DHT22;16814;52.118;11.436;2022-11-03T09:06:38;8.20;99.90
29571;DHT22;16814;52.118;11.436;2022-11-03T09:09:08;8.40;99.90
29571;DHT22;16814;52.118;11.436;2022-11-03T09:11:34;8.60;99.90
29571;DHT22;16814;52.118;11.436;2022-11-03T09:14:01;8.80;99.90
29571;DHT22;16814;52.118;11.436;2022-11-03T09:16:29;8.80;99.90
29571;DHT22;16814;52.118;11.436;2022-11-03T09:18:56;9.00;99.90
29571;DHT22;16814;52.118;11.436;2022-11-03T09:21:21;9.10;99.90
29571;DHT22;16814;52.118;11.436;2022-11-03T09:23:48;9.00;99.90
29571;DHT22;16814;52.118;11.436;2022-11-03T09:26:15;9.10;99.90
29571;DHT22;16814;52.118;11.436;2022-11-03T09:28:42;9.20;99.90
29571;DHT22;16814;52.118;11.436;2022-11-03T09:31:09;9.20;99.90
29571;DHT22;16814;52.118;11.436;2022-11-03T09:33:35;9.30;99.90
29571;DHT22;16814;52.118;11.436;2022-11-03T09:36:00;9.30;99.90
29571;DHT22;16814;52.118;11.436;2022-11-03T09:38:28;9.30;99.90
29571;DHT22;16814;52.118;11.436;2022-11-03T09:40:56;9.30;99.90
29571;DHT22;16814;52.118;11.436;2022-11-03T09:43:21;9.20;99.90
29571;DHT22;16814;52.118;11.436;2022-11-03T09:45:47;9.20;99.90
29571;DHT22;16814;52.118;11.436;2022-11-03T09:48:17;9.40;99.90
29571;DHT22;16814;52.118;11.436;2022-11-03T09:50:50;9.40;99.90
29571;DHT22;16814;52.118;11.436;2022-11-03T09:53:22;9.60;99.90
29571;DHT22;16814;52.118;11.436;2022-11-03T09:55:49;9.60;99.90
29571;DHT22;16814;52.118;11.436;2022-11-03T09:58:16;9.60;99.90
29571;DHT22;16814;52.118;11.436;2022-11-03T10:00:42;9.60;99.90
29571;DHT22;16814;52.118;11.436;2022-11-03T10:03:16;9.60;99.90
29571;DHT22;16814;52.118;11.436;2022-11-03T10:05:46;9.80;99.90
29571;DHT22;16814;52.118;11.436;2022-11-03T10:08:24;9.90;99.90
29571;DHT22;16814;52.118;11.436;2022-11-03T10:10:55;10.00;99.90
29571;DHT22;16814;52.118;11.436;2022-11-03T10:13:46;10.10;99.90
29571;DHT22;16814;52.118;11.436;2022-11-03T10:16:17;10.30;99.90
29571;DHT22;16814;52.118;11.436;2022-11-03T10:18:46;10.20;99.90
29571;DHT22;16814;52.118;11.436;2022-11-03T10:21:19;10.30;99.90
29571;DHT22;16814;52.118;11.436;2022-11-03T10:23:45;10.40;99.90
29571;DHT22;16814;52.118;11.436;2022-11-03T10:26:16;10.40;99.90
29571;DHT22;16814;52.118;11.436;2022-11-03T10:29:08;10.40;99.90
29571;DHT22;16814;52.118;11.436;2022-11-03T10:31:48;10.40;99.90
29571;DHT22;16814;52.118;11.436;2022-11-03T10:34:35;10.20;99.90
29571;DHT22;16814;52.118;11.436;2022-11-03T10:39:43;10.50;99.90
29571;DHT22;16814;52.118;11.436;2022-11-03T10:42:28;10.70;99.90
29571;DHT22;16814;52.118;11.436;2022-11-03T10:45:18;10.80;99.90
29571;DHT22;16814;52.118;11.436;2022-11-03T10:48:00;10.70;99.90
29571;DHT22;16814;52.118;11.436;2022-11-03T10:50:26;10.90;99.90
29571;DHT22;16814;52.118;11.436;2022-11-03T10:52:54;11.00;99.90
29571;DHT22;16814;52.118;11.436;2022-11-03T10:55:24;11.20;99.90
29571;DHT22;16814;52.118;11.436;2022-11-03T10:57:51;11.50;99.90
29571;DHT22;16814;52.118;11.436;2022-11-03T11:00:19;11.70;99.90
29571;DHT22;16814;52.118;11.436;2022-11-03T11:02:46;11.90;99.90
29571;DHT22;16814;52.118;11.436;2022-11-03T11:05:18;12.10;99.90
29571;DHT22;16814;52.118;11.436;2022-11-03T11:07:48;12.20;99.90
29571;DHT22;16814;52.118;11.436;2022-11-03T11:10:30;12.20;99.90
29571;DHT22;16814;52.118;11.436;2022-11-03T11:13:04;12.20;99.90
29571;DHT22;16814;52.118;11.436;2022-11-03T11:15:57;12.20;99.90
29571;DHT22;16814;52.118;11.436;2022-11-03T11:23:41;12.50;99.90
29571;DHT22;16814;52.118;11.436;2022-11-03T11:26:14;12.50;99.90
29571;DHT22;16814;52.118;11.436;2022-11-03T11:31:41;12.60;99.90
29571;DHT22;16814;52.118;11.436;2022-11-03T11:44:48;12.80;99.90
29571;DHT22;16814;52.118;11.436;2022-11-03T11:47:44;12.80;99.90
29571;DHT22;16814;52.118;11.436;2022-11-03T11:52:56;12.90;99.90
29571;DHT22;16814;52.118;11.436;2022-11-03T11:55:54;12.80;99.90
29571;DHT22;16814;52.118;11.436;2022-11-03T12:03:58;12.70;99.90
29571;DHT22;16814;52.118;11.436;2022-11-03T12:06:51;12.80;99.90
29571;DHT22;16814;52.118;11.436;2022-11-03T12:09:21;12.80;99.90
29571;DHT22;16814;52.118;11.436;2022-11-03T12:11:56;12.90;99.90
29571;DHT22;16814;52.118;11.436;2022-11-03T12:14:36;12.80;99.90
29571;DHT22;16814;52.118;11.436;2022-11-03T12:19:53;12.80;99.90
29571;DHT22;16814;52.118;11.436;2022-11-03T12:25:01;12.80;99.90
29571;DHT22;16814;52.118;11.436;2022-11-03T12:30:07;12.90;99.90
29571;DHT22;16814;52.118;11.436;2022-11-03T12:32:37;12.90;99.90
29571;DHT22;16814;52.118;11.436;2022-11-03T12:35:07;12.90;99.90
29571;DHT22;16814;52.118;11.436;2022-11-03T12:37:35;12.90;99.90
29571;DHT22;16814;52.118;11.436;2022-11-03T12:40:01;12.90;99.90
29571;DHT22;16814;52.118;11.436;2022-11-03T12:42:28;12.80;99.90
29571;DHT22;16814;52.118;11.436;2022-11-03T12:44:55;12.70;99.90
29571;DHT22;16814;52.118;11.436;2022-11-03T12:47:20;12.70;99.90
29571;DHT22;16814;52.118;11.436;2022-11-03T12:49:47;12.60;99.90
29571;DHT22;16814;52.118;11.436;2022-11-03T12:52:14;12.60;99.90
29571;DHT22;16814;52.118;11.436;2022-11-03T12:54:42;12.60;99.90
29571;DHT22;16814;52.118;11.436;2022-11-03T12:57:11;12.50;99.90
29571;DHT22;16814;52.118;11.436;2022-11-03T12:59:37;12.50;99.90
29571;DHT22;16814;52.118;11.436;2022-11-03T13:02:03;12.60;99.90
29571;DHT22;16814;52.118;11.436;2022-11-03T13:04:31;12.60;99.90
29571;DHT22;16814;52.118;11.436;2022-11-03T13:06:58;12.50;99.90
29571;DHT22;16814;52.118;11.436;2022-11-03T13:09:24;12.60;99.90
29571;DHT22;16814;52.118;11.436;2022-11-03T13:11:52;12.80;99.90
29571;DHT22;16814;52.118;11.436;2022-11-03T13:14:37;12.60;99.90
29571;DHT22;16814;52.118;11.436;2022-11-03T13:17:05;12.60;99.90
29571;DHT22;16814;52.118;11.436;2022-11-03T13:19:32;12.60;99.90
29571;DHT22;16814;52.118;11.436;2022-11-03T13:21:59;12.60;99.90
29571;DHT22;16814;52.118;11.436;2022-11-03T13:24:26;12.60;99.90
29571;DHT22;16814;52.118;11.436;2022-11-03T13:26:51;12.60;99.90
29571;DHT22;16814;52.118;11.436;2022-11-03T13:29:18;12.70;99.90
29571;DHT22;16814;52.118;11.436;2022-11-03T13:31:45;12.70;99.90
29571;DHT22;16814;52.118;11.436;2022-11-03T13:34:12;12.60;99.90
29571;DHT22;16814;52.118;11.436;2022-11-03T13:36:39;12.50;99.90
29571;DHT22;16814;52.118;11.436;2022-11-03T13:39:04;12.50;99.90
29571;DHT22;16814;52.118;11.436;2022-11-03T13:41:32;12.30;99.90
29571;DHT22;16814;52.118;11.436;2022-11-03T13:43:59;12.30;99.90
29571;DHT22;16814;52.118;11.436;2022-11-03T13:46:26;12.40;99.90
29571;DHT22;16814;52.118;11.436;2022-11-03T13:48:53;12.20;99.90
29571;DHT22;16814;52.118;11.436;2022-11-03T13:51:23;12.30;99.90
29571;DHT22;16814;52.118;11.436;2022-11-03T13:53:51;12.30;99.90
29571;DHT22;16814;52.118;11.436;2022-11-03T13:56:16;12.30;99.90
29571;DHT22;16814;52.118;11.436;2022-11-03T13:58:42;12.20;99.90
29571;DHT22;16814;52.118;11.436;2022-11-03T14:01:10;12.10;99.90
29571;DHT22;16814;52.118;11.436;2022-11-03T14:03:41;12.00;99.90
29571;DHT22;16814;52.118;11.436;2022-11-03T14:06:08;12.00;99.90
29571;DHT22;16814;52.118;11.436;2022-11-03T14:08:39;12.10;99.90
29571;DHT22;16814;52.118;11.436;2022-11-03T14:11:04;12.00;99.90
29571;DHT22;16814;52.118;11.436;2022-11-03T14:13:52;12.00;99.90
29571;DHT22;16814;52.118;11.436;2022-11-03T14:16:19;11.90;99.90
29571;DHT22;16814;52.118;11.436;2022-11-03T14:18:46;12.00;99.90
29571;DHT22;16814;52.118;11.436;2022-11-03T14:21:14;11.90;99.90
29571;DHT22;16814;52.118;11.436;2022-11-03T14:23:40;12.00;99.90
29571;DHT22;16814;52.118;11.436;2022-11-03T14:26:08;11.90;99.90
29571;DHT22;16814;52.118;11.436;2022-11-03T14:28:35;12.00;99.90
29571;DHT22;16814;52.118;11.436;2022-11-03T14:31:02;12.00;99.90
29571;DHT22;16814;52.118;11.436;2022-11-03T14:33:30;12.00;99.90
29571;DHT22;16814;52.118;11.436;2022-11-03T14:35:56;11.90;99.90
29571;DHT22;16814;52.118;11.436;2022-11-03T14:38:25;11.90;99.90
29571;DHT22;16814;52.118;11.436;2022-11-03T14:40:51;11.80;99.90
29571;DHT22;16814;52.118;11.436;2022-11-03T14:43:35;11.80;99.90
29571;DHT22;16814;52.118;11.436;2022-11-03T14:46:00;11.80;99.90
29571;DHT22;16814;52.118;11.436;2022-11-03T14:48:27;11.70;99.90
29571;DHT22;16814;52.118;11.436;2022-11-03T14:50:55;11.60;99.90
29571;DHT22;16814;52.118;11.436;2022-11-03T14:53:20;11.60;99.90
29571;DHT22;16814;52.118;11.436;2022-11-03T14:55:47;11.50;99.90
29571;DHT22;16814;52.118;11.436;2022-11-03T14:58:16;11.50;99.90
29571;DHT22;16814;52.118;11.436;2022-11-03T15:00:42;11.40;99.90
29571;DHT22;16814;52.118;11.436;2022-11-03T15:03:10;11.30;99.90
29571;DHT22;16814;52.118;11.436;2022-11-03T15:05:37;11.30;99.90
29571;DHT22;16814;52.118;11.436;2022-11-03T15:08:12;11.20;99.90
29571;DHT22;16814;52.118;11.436;2022-11-03T15:10:39;11.10;99.90
29571;DHT22;16814;52.118;11.436;2022-11-03T15:13:08;11.20;99.90
29571;DHT22;16814;52.118;11.436;2022-11-03T15:15:37;11.20;99.90
29571;DHT22;16814;52.118;11.436;2022-11-03T15:18:07;11.20;99.90
29571;DHT22;16814;52.118;11.436;2022-11-03T15:20:35;11.20;99.90
29571;DHT22;16814;52.118;11.436;2022-11-03T15:23:05;11.20;99.90
29571;DHT22;16814;52.118;11.436;2022-11-03T15:25:34;11.20;99.90
29571;DHT22;16814;52.118;11.436;2022-11-03T15:28:01;11.10;99.90
29571;DHT22;16814;52.118;11.436;2022-11-03T15:30:28;11.10;99.90
29571;DHT22;16814;52.118;11.436;2022-11-03T15:33:01;11.10;99.90
29571;DHT22;16814;52.118;11.436;2022-11-03T15:35:29;11.00;99.90
29571;DHT22;16814;52.118;11.436;2022-11-03T15:37:55;10.90;99.90
29571;DHT22;16814;52.118;11.436;2022-11-03T15:40:24;10.90;99.90
29571;DHT22;16814;52.118;11.436;2022-11-03T15:42:52;10.80;99.90
29571;DHT22;16814;52.118;11.436;2022-11-03T15:45:19;10.80;99.90
29571;DHT22;16814;52.118;11.436;2022-11-03T15:47:45;10.70;99.90
29571;DHT22;16814;52.118;11.436;2022-11-03T15:50:12;10.60;99.90
29571;DHT22;16814;52.118;11.436;2022-11-03T15:52:42;10.60;99.90
29571;DHT22;16814;52.118;11.436;2022-11-03T15:55:09;10.70;99.90
29571;DHT22;16814;52.118;11.436;2022-11-03T15:57:36;10.70;99.90
29571;DHT22;16814;52.118;11.436;2022-11-03T16:00:03;10.70;99.90
29571;DHT22;16814;52.118;11.436;2022-11-03T16:02:31;10.70;99.90
29571;DHT22;16814;52.118;11.436;2022-11-03T16:04:57;10.70;99.90
29571;DHT22;16814;52.118;11.436;2022-11-03T16:07:25;10.60;99.90
29571;DHT22;16814;52.118;11.436;2022-11-03T16:09:52;10.60;99.90
29571;DHT22;16814;52.118;11.436;2022-11-03T16:12:18;10.50;99.90
29571;DHT22;16814;52.118;11.436;2022-11-03T16:14:43;10.50;99.90
29571;DHT22;16814;52.118;11.436;2022-11-03T16:17:12;10.50;99.90
29571;DHT22;16814;52.118;11.436;2022-11-03T16:19:39;10.30;99.90
29571;DHT22;16814;52.118;11.436;2022-11-03T16:22:07;10.40;99.90
29571;DHT22;16814;52.118;11.436;2022-11-03T16:24:34;10.20;99.90
29571;DHT22;16814;52.118;11.436;2022-11-03T16:27:00;10.20;99.90
29571;DHT22;16814;52.118;11.436;2022-11-03T16:29:25;10.10;99.90
29571;DHT22;16814;52.118;11.436;2022-11-03T16:31:52;10.10;99.90
29571;DHT22;16814;52.118;11.436;2022-11-03T16:34:19;10.10;99.90
29571;DHT22;16814;52.118;11.436;2022-11-03T16:36:46;10.10;99.90
29571;DHT22;16814;52.118;11.436;2022-11-03T16:39:13;10.20;99.90
29571;DHT22;16814;52.118;11.436;2022-11-03T16:41:38;10.20;99.90
29571;DHT22;16814;52.118;11.436;2022-11-03T16:44:05;10.10;99.90
29571;DHT22;16814;52.118;11.436;2022-11-03T16:46:33;10.10;99.90
29571;DHT22;16814;52.118;11.436;2022-11-03T16:49:03;10.20;99.90
29571;DHT22;16814;52.118;11.436;2022-11-03T16:51:31;10.10;99.90
29571;DHT22;16814;52.118;11.436;2022-11-03T16:54:03;10.00;99.90
29571;DHT22;16814;52.118;11.436;2022-11-03T16:56:37;10.00;99.90
29571;DHT22;16814;52.118;11.436;2022-11-03T16:59:03;10.00;99.90